createdAt,value
2022-08-20T00:01:05.451Z,3.90
2022-08-20T00:03:44.624Z,2.00
2022-08-20T00:06:19.757Z,1.77
2022-08-20T00:08:47.474Z,2.00
2022-08-20T00:11:17.301Z,1.80
2022-08-20T00:13:47.692Z,2.30
2022-08-20T00:16:16.542Z,2.40
2022-08-20T00:18:43.805Z,2.40
2022-08-20T00:21:13.107Z,2.67
2022-08-20T00:23:48.204Z,2.53
2022-08-20T00:26:15.293Z,2.23
2022-08-20T00:28:42.036Z,3.40
2022-08-20T00:31:11.689Z,4.13
2022-08-20T00:33:40.069Z,3.20
2022-08-20T00:36:09.425Z,3.30
2022-08-20T00:38:38.159Z,3.07
2022-08-20T00:41:07.228Z,3.87
2022-08-20T00:43:39.333Z,2.63
2022-08-20T00:46:12.450Z,2.87
2022-08-20T00:48:41.349Z,2.70
2022-08-20T00:51:27.289Z,2.63
2022-08-20T00:54:11.644Z,2.80
2022-08-20T00:56:39.276Z,2.40
2022-08-20T00:59:11.391Z,2.83
2022-08-20T01:01:55.247Z,2.87
2022-08-20T01:04:24.918Z,2.90
2022-08-20T01:06:52.201Z,3.33
2022-08-20T01:09:49.945Z,2.90
2022-08-20T01:12:07.616Z,3.77
2022-08-20T01:14:34.382Z,4.63
2022-08-20T01:17:05.123Z,4.20
2022-08-20T01:19:38.696Z,3.47
2022-08-20T01:22:26.620Z,4.10
2022-08-20T01:25:03.606Z,4.03
2022-08-20T01:27:31.947Z,4.20
2022-08-20T01:30:02.915Z,4.03
2022-08-20T01:32:33.670Z,6.60
2022-08-20T01:35:00.388Z,9.27
2022-08-20T01:37:31.384Z,10.27
2022-08-20T01:39:58.628Z,8.43
2022-08-20T01:42:36.400Z,8.00
2022-08-20T01:45:04.728Z,6.50
2022-08-20T01:47:38.427Z,5.80
2022-08-20T01:50:20.962Z,5.87
2022-08-20T01:53:11.238Z,6.40
2022-08-20T01:55:38.625Z,5.50
2022-08-20T01:58:05.841Z,5.90
2022-08-20T02:00:34.811Z,5.10
2022-08-20T02:03:03.252Z,5.30
2022-08-20T02:05:32.524Z,5.03
2022-08-20T02:08:00.050Z,4.43
2022-08-20T02:10:26.875Z,5.57
2022-08-20T02:13:00.183Z,4.60
2022-08-20T02:15:34.611Z,4.30
2022-08-20T02:18:07.970Z,4.27
2022-08-20T02:20:36.476Z,4.60
2022-08-20T02:23:04.420Z,4.70
2022-08-20T02:25:33.582Z,5.07
2022-08-20T02:28:04.535Z,3.77
2022-08-20T02:30:36.854Z,4.27
2022-08-20T02:33:05.896Z,5.03
2022-08-20T02:35:34.303Z,4.07
2022-08-20T02:38:01.599Z,4.60
2022-08-20T02:40:31.249Z,5.33
2022-08-20T02:43:00.150Z,5.67
2022-08-20T02:45:27.849Z,4.90
2022-08-20T02:47:56.655Z,4.80
2022-08-20T02:50:25.979Z,6.00
2022-08-20T02:52:52.756Z,6.40
2022-08-20T02:55:27.517Z,6.10
2022-08-20T02:57:58.444Z,7.60
2022-08-20T03:00:30.545Z,6.23
2022-08-20T03:03:05.231Z,6.53
2022-08-20T03:05:32.013Z,7.63
2022-08-20T03:07:58.714Z,7.23
2022-08-20T03:10:29.215Z,6.10
2022-08-20T03:12:55.907Z,7.97
2022-08-20T03:15:22.585Z,8.87
2022-08-20T03:17:49.349Z,7.10
2022-08-20T03:20:16.410Z,8.27
2022-08-20T03:22:43.175Z,9.27
2022-08-20T03:25:10.747Z,8.40
2022-08-20T03:27:38.216Z,11.30
2022-08-20T03:30:09.122Z,17.83
2022-08-20T03:32:36.420Z,17.17
2022-08-20T03:35:05.123Z,20.37
2022-08-20T03:37:34.084Z,21.10
2022-08-20T03:40:01.841Z,21.70
2022-08-20T03:42:28.576Z,19.90
2022-08-20T03:44:58.921Z,21.73
2022-08-20T03:47:26.735Z,19.33
2022-08-20T03:49:59.044Z,19.63
2022-08-20T03:52:28.297Z,20.57
2022-08-20T03:54:55.603Z,20.00
2022-08-20T03:57:22.646Z,20.30
2022-08-20T03:59:49.792Z,19.40
2022-08-20T04:02:25.225Z,18.63
2022-08-20T04:04:51.945Z,20.10
2022-08-20T04:07:27.788Z,19.70
2022-08-20T04:09:55.918Z,18.33
2022-08-20T04:12:24.338Z,21.17
2022-08-20T04:14:51.933Z,17.90
2022-08-20T04:17:20.305Z,18.80
2022-08-20T04:19:48.267Z,19.83
2022-08-20T04:22:14.966Z,17.80
2022-08-20T04:24:42.983Z,17.57
2022-08-20T04:27:10.816Z,20.43
2022-08-20T04:29:42.892Z,18.10
2022-08-20T04:32:09.686Z,19.27
2022-08-20T04:34:36.832Z,17.70
2022-08-20T04:37:04.592Z,19.10
2022-08-20T04:39:31.364Z,19.83
2022-08-20T04:41:58.172Z,18.17
2022-08-20T04:44:24.902Z,18.93
2022-08-20T04:46:51.545Z,17.80
2022-08-20T04:49:18.282Z,17.47
2022-08-20T04:51:44.948Z,19.03
2022-08-20T04:54:13.719Z,18.73
2022-08-20T04:56:40.421Z,21.03
2022-08-20T04:59:08.109Z,20.47
2022-08-20T05:01:35.031Z,19.33
2022-08-20T05:04:01.772Z,20.43
2022-08-20T05:06:31.568Z,21.33
2022-08-20T05:08:59.700Z,20.13
2022-08-20T05:11:34.673Z,19.03
2022-08-20T05:14:08.519Z,19.67
2022-08-20T05:16:39.631Z,18.00
2022-08-20T05:19:09.296Z,20.80
2022-08-20T05:21:37.072Z,20.00
2022-08-20T05:24:04.435Z,20.60
2022-08-20T05:26:31.107Z,18.23
2022-08-20T05:28:59.426Z,17.10
2022-08-20T05:31:30.881Z,18.60
2022-08-20T05:34:01.334Z,17.53
2022-08-20T05:36:28.112Z,16.17
2022-08-20T05:38:54.848Z,17.57
2022-08-20T05:41:29.342Z,18.20
2022-08-20T05:44:03.048Z,16.63
2022-08-20T05:46:31.935Z,16.33
2022-08-20T05:49:00.132Z,17.10
2022-08-20T05:51:29.156Z,19.40
2022-08-20T05:53:59.082Z,17.30
2022-08-20T05:56:30.129Z,17.77
2022-08-20T05:58:58.006Z,17.60
2022-08-20T06:01:24.778Z,16.63
2022-08-20T06:04:10.055Z,17.20
2022-08-20T06:06:45.509Z,16.57
2022-08-20T06:09:16.517Z,17.00
2022-08-20T06:11:54.901Z,17.07
2022-08-20T06:14:26.527Z,16.37
2022-08-20T06:16:57.978Z,17.50
2022-08-20T06:19:26.583Z,16.00
2022-08-20T06:21:54.493Z,17.33
2022-08-20T06:24:21.411Z,16.03
2022-08-20T06:26:48.236Z,14.00
2022-08-20T06:29:15.993Z,15.80
2022-08-20T06:31:42.725Z,16.13
2022-08-20T06:34:09.406Z,15.93
2022-08-20T06:36:36.056Z,16.10
2022-08-20T06:39:03.367Z,14.60
2022-08-20T06:41:36.250Z,14.60
2022-08-20T06:44:04.940Z,15.20
2022-08-20T06:46:32.177Z,16.87
2022-08-20T06:48:59.018Z,15.40
2022-08-20T06:51:25.668Z,14.50
2022-08-20T06:53:52.351Z,14.43
2022-08-20T06:56:18.994Z,15.73
2022-08-20T06:58:45.662Z,16.70
2022-08-20T07:01:13.687Z,15.23
2022-08-20T07:03:54.158Z,15.20
2022-08-20T07:06:25.949Z,13.57
2022-08-20T07:08:53.711Z,14.03
2022-08-20T07:11:26.559Z,14.57
2022-08-20T07:13:54.518Z,14.57
2022-08-20T07:16:21.232Z,13.67
2022-08-20T07:18:47.884Z,14.30
2022-08-20T07:21:14.652Z,13.63
2022-08-20T07:23:42.122Z,15.63
2022-08-20T07:26:08.959Z,14.40
2022-08-20T07:28:35.828Z,13.30
2022-08-20T07:31:21.014Z,15.73
2022-08-20T07:33:50.343Z,12.47
2022-08-20T07:36:18.139Z,14.40
2022-08-20T07:38:50.826Z,14.80
2022-08-20T07:41:17.559Z,12.97
2022-08-20T07:43:45.758Z,12.87
2022-08-20T07:46:20.646Z,12.93
2022-08-20T07:48:49.909Z,13.03
2022-08-20T07:51:19.209Z,15.23
2022-08-20T07:53:47.602Z,13.90
2022-08-20T07:56:24.597Z,12.30
2022-08-20T07:58:55.227Z,13.30
2022-08-20T08:01:28.597Z,13.37
2022-08-20T08:03:57.525Z,12.87
2022-08-20T08:06:29.486Z,15.07
2022-08-20T08:09:13.756Z,12.30
2022-08-20T08:11:49.187Z,15.33
2022-08-20T08:14:23.437Z,14.00
2022-08-20T08:16:50.901Z,11.97
2022-08-20T08:19:18.847Z,13.17
2022-08-20T08:21:45.591Z,11.97
2022-08-20T08:24:16.672Z,11.90
2022-08-20T08:26:49.971Z,11.40
2022-08-20T08:29:17.023Z,12.93
2022-08-20T08:31:44.046Z,11.93
2022-08-20T08:34:11.520Z,13.40
2022-08-20T08:36:39.207Z,13.40
2022-08-20T08:39:05.896Z,14.47
2022-08-20T08:41:37.235Z,11.50
2022-08-20T08:44:13.063Z,13.40
2022-08-20T08:46:46.020Z,12.33
2022-08-20T08:49:16.650Z,13.50
2022-08-20T08:51:50.017Z,14.60
2022-08-20T08:54:22.307Z,12.67
2022-08-20T08:56:49.667Z,13.10
2022-08-20T08:59:18.677Z,13.10
2022-08-20T09:01:55.540Z,10.73
2022-08-20T09:04:31.440Z,14.27
2022-08-20T09:06:59.206Z,14.17
2022-08-20T09:09:31.322Z,13.63
2022-08-20T09:12:05.074Z,12.23
2022-08-20T09:14:32.535Z,12.30
2022-08-20T09:16:59.290Z,13.03
2022-08-20T09:19:26.230Z,12.77
2022-08-20T09:21:52.907Z,13.50
2022-08-20T09:24:19.596Z,11.93
2022-08-20T09:26:46.325Z,12.70
2022-08-20T09:29:13.217Z,11.70
2022-08-20T09:31:39.985Z,12.80
2022-08-20T09:34:07.131Z,11.03
2022-08-20T09:36:33.867Z,11.10
2022-08-20T09:39:02.793Z,12.30
2022-08-20T09:41:30.316Z,13.77
2022-08-20T09:43:56.963Z,16.00
2022-08-20T09:46:26.968Z,12.53
2022-08-20T09:48:54.639Z,12.50
2022-08-20T09:51:21.820Z,14.70
2022-08-20T09:53:49.198Z,14.07
2022-08-20T09:56:16.812Z,12.90
2022-08-20T09:58:53.256Z,13.37
2022-08-20T10:01:21.931Z,13.20
2022-08-20T10:03:49.992Z,11.40
2022-08-20T10:06:20.126Z,14.27
2022-08-20T10:08:47.686Z,13.30
2022-08-20T10:11:14.462Z,14.87
2022-08-20T10:13:41.312Z,13.70
2022-08-20T10:16:08.055Z,13.80
2022-08-20T10:18:36.361Z,13.20
2022-08-20T10:21:03.390Z,15.07
2022-08-20T10:23:30.093Z,13.37
2022-08-20T10:25:56.732Z,12.60
2022-08-20T10:28:23.480Z,13.00
2022-08-20T10:30:50.157Z,13.13
2022-08-20T10:33:16.972Z,13.10
2022-08-20T10:35:43.626Z,14.80
2022-08-20T10:38:10.354Z,12.40
2022-08-20T10:40:37.084Z,12.10
2022-08-20T10:43:04.079Z,13.47
2022-08-20T10:45:31.309Z,14.10
2022-08-20T10:48:01.259Z,12.90
2022-08-20T10:50:30.229Z,12.70
2022-08-20T10:52:57.918Z,13.20
2022-08-20T10:55:24.783Z,15.00
2022-08-20T10:57:51.734Z,13.30
2022-08-20T11:00:19.600Z,14.90
2022-08-20T11:02:46.455Z,14.00
2022-08-20T11:05:13.249Z,13.97
2022-08-20T11:07:50.494Z,13.03
2022-08-20T11:10:24.406Z,14.67
2022-08-20T11:12:51.074Z,14.50
2022-08-20T11:15:17.862Z,15.50
2022-08-20T11:17:45.167Z,13.60
2022-08-20T11:20:15.412Z,14.20
2022-08-20T11:22:42.188Z,14.70
2022-08-20T11:25:09.493Z,14.77
2022-08-20T11:27:41.681Z,13.90
2022-08-20T11:30:11.629Z,14.53
2022-08-20T11:32:38.568Z,13.23
2022-08-20T11:35:24.445Z,14.00
2022-08-20T11:37:54.489Z,15.50
2022-08-20T11:40:21.991Z,15.97
2022-08-20T11:43:13.271Z,15.90
2022-08-20T11:45:37.423Z,15.80
2022-08-20T11:48:04.739Z,14.43
2022-08-20T11:50:31.479Z,15.40
2022-08-20T11:52:58.457Z,16.40
2022-08-20T11:55:30.001Z,15.90
2022-08-20T11:58:00.474Z,14.00
2022-08-20T12:00:32.927Z,18.57
2022-08-20T12:03:01.843Z,11.40
2022-08-20T12:05:29.916Z,16.10
2022-08-20T12:07:57.904Z,15.70
2022-08-20T12:10:26.735Z,15.90
2022-08-20T12:12:54.139Z,14.20
2022-08-20T12:15:21.152Z,13.00
2022-08-20T12:17:48.165Z,16.80
2022-08-20T12:20:15.719Z,15.63
2022-08-20T12:22:43.906Z,15.43
2022-08-20T12:25:12.306Z,13.70
2022-08-20T12:27:39.790Z,16.20
2022-08-20T12:30:10.569Z,13.80
2022-08-20T12:32:37.667Z,17.60
2022-08-20T12:35:06.601Z,15.20
2022-08-20T12:37:33.941Z,12.80
2022-08-20T12:40:02.623Z,13.40
2022-08-20T12:42:30.541Z,16.43
2022-08-20T12:44:58.749Z,16.80
2022-08-20T12:47:27.995Z,14.87
2022-08-20T12:49:58.556Z,15.77
2022-08-20T12:52:25.984Z,15.17
2022-08-20T12:54:53.919Z,16.97
2022-08-20T12:57:35.479Z,17.00
2022-08-20T13:00:13.073Z,14.90
2022-08-20T13:02:41.229Z,15.60
2022-08-20T13:05:12.375Z,15.80
2022-08-20T13:07:39.950Z,13.90
2022-08-20T13:10:09.050Z,16.00
2022-08-20T13:12:36.548Z,16.93
2022-08-20T13:15:04.080Z,15.57
2022-08-20T13:17:38.048Z,16.20
2022-08-20T13:20:08.791Z,14.33
2022-08-20T13:22:35.534Z,16.20
2022-08-20T13:25:02.293Z,14.87
2022-08-20T13:27:29.122Z,13.60
2022-08-20T13:29:58.813Z,15.87
2022-08-20T13:32:26.668Z,13.70
2022-08-20T13:34:53.755Z,12.27
2022-08-20T13:37:25.635Z,12.23
2022-08-20T13:39:53.546Z,15.37
2022-08-20T13:42:20.516Z,14.93
2022-08-20T13:44:48.005Z,12.50
2022-08-20T13:47:30.056Z,15.07
2022-08-20T13:50:06.726Z,15.37
2022-08-20T13:52:34.271Z,15.87
2022-08-20T13:55:03.181Z,13.60
2022-08-20T13:57:33.617Z,13.47
2022-08-20T14:00:00.634Z,12.97
2022-08-20T14:02:27.687Z,12.93
2022-08-20T14:04:54.651Z,11.47
2022-08-20T14:07:23.224Z,10.73
2022-08-20T14:09:54.111Z,9.40
2022-08-20T14:12:23.252Z,8.60
2022-08-20T14:14:51.971Z,8.80
2022-08-20T14:17:26.258Z,8.70
2022-08-20T14:20:00.823Z,7.10
2022-08-20T14:22:29.386Z,7.53
2022-08-20T14:24:56.471Z,7.47
2022-08-20T14:27:27.816Z,9.00
2022-08-20T14:29:58.992Z,9.57
2022-08-20T14:32:26.397Z,8.83
2022-08-20T14:34:53.995Z,8.37
2022-08-20T14:37:25.026Z,9.83
2022-08-20T14:39:55.116Z,9.10
2022-08-20T14:42:23.065Z,10.47
2022-08-20T14:44:51.007Z,10.03
2022-08-20T14:47:21.482Z,10.80
2022-08-20T14:49:50.894Z,12.60
2022-08-20T14:52:19.210Z,9.93
2022-08-20T14:54:47.056Z,11.00
2022-08-20T14:57:14.732Z,11.00
2022-08-20T14:59:42.231Z,12.40
2022-08-20T15:02:12.455Z,11.30
2022-08-20T15:04:39.859Z,10.40
2022-08-20T15:07:24.489Z,9.57
2022-08-20T15:09:51.617Z,9.40
2022-08-20T15:12:18.367Z,7.97
2022-08-20T15:14:45.228Z,6.50
2022-08-20T15:17:24.910Z,5.10
2022-08-20T15:19:51.884Z,4.07
2022-08-20T15:22:19.501Z,2.93
2022-08-20T15:24:46.648Z,2.60
2022-08-20T15:27:22.266Z,1.77
2022-08-20T15:29:50.242Z,2.27
2022-08-20T15:32:17.294Z,2.00
2022-08-20T15:34:44.145Z,1.70
2022-08-20T15:37:20.714Z,1.53
2022-08-20T15:39:48.935Z,1.53
2022-08-20T15:42:16.156Z,1.17
2022-08-20T15:44:43.368Z,1.23
2022-08-20T15:47:26.867Z,1.30
2022-08-20T15:50:01.493Z,1.03
2022-08-20T15:52:33.222Z,1.10
2022-08-20T15:55:02.096Z,1.10
2022-08-20T15:58:00.410Z,1.20
2022-08-20T16:00:42.744Z,0.90
2022-08-20T16:03:26.338Z,1.30
2022-08-20T16:06:17.889Z,1.43
2022-08-20T16:08:56.474Z,1.03
2022-08-20T16:11:32.602Z,1.23
2022-08-20T16:14:15.520Z,1.20
2022-08-20T16:16:47.039Z,1.10
2022-08-20T16:19:21.973Z,1.37
2022-08-20T16:21:50.076Z,1.40
2022-08-20T16:24:18.033Z,1.30
2022-08-20T16:27:05.915Z,1.50
2022-08-20T16:29:55.491Z,1.80
2022-08-20T16:32:34.799Z,1.50
2022-08-20T16:35:10.208Z,1.80
2022-08-20T16:37:46.915Z,1.73
2022-08-20T16:40:22.560Z,2.23
2022-08-20T16:42:51.364Z,2.23
2022-08-20T16:45:28.776Z,1.90
2022-08-20T16:48:00.977Z,1.60
2022-08-20T16:50:53.316Z,2.00
2022-08-20T16:53:22.622Z,1.70
2022-08-20T16:55:50.010Z,1.83
2022-08-20T16:58:17.194Z,1.60
2022-08-20T17:00:45.145Z,1.67
2022-08-20T17:03:31.697Z,1.43
2022-08-20T17:06:24.892Z,1.43
2022-08-20T17:08:52.013Z,1.70
2022-08-20T17:11:33.101Z,1.83
2022-08-20T17:14:05.924Z,2.00
2022-08-20T17:16:44.447Z,1.67
2022-08-20T17:19:34.229Z,2.13
2022-08-20T17:22:14.597Z,8.30
2022-08-20T17:24:41.588Z,22.60
2022-08-20T17:27:14.850Z,34.70
2022-08-20T17:29:57.840Z,14.87
2022-08-20T17:32:28.199Z,2.43
2022-08-20T17:34:58.114Z,1.90
2022-08-20T17:37:28.081Z,2.10
2022-08-20T17:40:26.053Z,2.43
2022-08-20T17:42:58.262Z,2.10
2022-08-20T17:45:42.106Z,2.27
2022-08-20T17:48:17.994Z,2.40
2022-08-20T17:50:44.819Z,2.30
2022-08-20T17:53:28.484Z,1.97
2022-08-20T17:56:01.214Z,1.90
2022-08-20T17:58:54.691Z,2.10
2022-08-20T18:01:23.492Z,2.50
2022-08-20T18:03:51.735Z,1.70
2022-08-20T18:06:37.225Z,1.80
2022-08-20T18:09:29.639Z,2.23
2022-08-20T18:12:33.428Z,2.00
2022-08-20T18:15:25.577Z,1.53
2022-08-20T18:18:08.457Z,1.40
2022-08-20T18:20:56.956Z,2.50
2022-08-20T18:23:29.688Z,2.40
2022-08-20T18:26:03.132Z,2.50
2022-08-20T18:28:38.863Z,2.30
2022-08-20T18:31:09.052Z,2.37
2022-08-20T18:33:43.475Z,2.30
2022-08-20T18:36:23.432Z,2.73
2022-08-20T18:38:57.964Z,2.30
2022-08-20T18:41:40.753Z,2.50
2022-08-20T18:44:13.839Z,2.20
2022-08-20T18:46:56.146Z,2.27
2022-08-20T18:49:40.666Z,2.60
2022-08-20T18:52:13.917Z,2.57
2022-08-20T18:54:51.204Z,2.10
2022-08-20T18:57:28.604Z,2.87
2022-08-20T19:00:18.419Z,2.67
2022-08-20T19:03:06.993Z,2.90
2022-08-20T19:05:46.516Z,3.17
2022-08-20T19:08:20.566Z,2.53
2022-08-20T19:11:02.747Z,2.70
2022-08-20T19:14:08.795Z,2.70
2022-08-20T19:16:49.816Z,2.77
2022-08-20T19:19:22.264Z,2.63
2022-08-20T19:21:49.567Z,2.60
2022-08-20T19:24:24.362Z,2.70
2022-08-20T19:26:57.289Z,2.73
2022-08-20T19:29:31.269Z,3.30
2022-08-20T19:32:07.491Z,3.20
2022-08-20T19:34:35.567Z,3.13
2022-08-20T19:37:27.685Z,3.20
2022-08-20T19:39:59.160Z,2.50
2022-08-20T19:42:33.405Z,3.20
2022-08-20T19:45:07.715Z,3.50
2022-08-20T19:47:45.742Z,3.13
2022-08-20T19:50:30.908Z,2.90
2022-08-20T19:53:06.422Z,3.03
2022-08-20T19:55:36.041Z,3.00
2022-08-20T19:58:07.904Z,3.20
2022-08-20T20:00:40.191Z,3.83
2022-08-20T20:03:17.415Z,3.40
2022-08-20T20:06:16.846Z,3.80
2022-08-20T20:08:51.824Z,3.50
2022-08-20T20:11:21.610Z,4.17
2022-08-20T20:13:48.372Z,3.17
2022-08-20T20:16:22.717Z,3.37
2022-08-20T20:19:09.140Z,3.00
2022-08-20T20:21:43.416Z,3.50
2022-08-20T20:24:11.630Z,3.47
2022-08-20T20:26:41.097Z,3.30
2022-08-20T20:29:16.425Z,3.73
2022-08-20T20:32:00.348Z,3.73
2022-08-20T20:34:30.347Z,3.50
2022-08-20T20:37:42.657Z,3.90
2022-08-20T20:40:25.680Z,4.07
2022-08-20T20:43:06.401Z,3.23
2022-08-20T20:45:40.167Z,3.80
2022-08-20T20:48:19.540Z,2.87
2022-08-20T20:50:47.911Z,3.93
2022-08-20T20:53:51.390Z,3.50
2022-08-20T20:56:42.907Z,3.77
2022-08-20T20:59:10.667Z,2.87
2022-08-20T21:01:49.477Z,3.50
2022-08-20T21:04:19.333Z,3.20
2022-08-20T21:06:46.112Z,2.87
2022-08-20T21:09:12.864Z,2.70
2022-08-20T21:11:39.551Z,3.33
2022-08-20T21:14:06.328Z,2.97
2022-08-20T21:16:33.058Z,3.50
2022-08-20T21:18:59.828Z,3.23
2022-08-20T21:21:26.533Z,2.90
2022-08-20T21:23:53.237Z,3.10
2022-08-20T21:26:19.930Z,3.87
2022-08-20T21:28:46.692Z,2.60
2022-08-20T21:31:13.501Z,3.90
2022-08-20T21:33:40.183Z,3.23
2022-08-20T21:36:07.070Z,2.97
2022-08-20T21:38:33.797Z,3.60
2022-08-20T21:41:00.484Z,3.03
2022-08-20T21:43:32.680Z,2.80
2022-08-20T21:46:01.348Z,3.20
2022-08-20T21:48:29.114Z,2.73
2022-08-20T21:50:55.767Z,3.30
2022-08-20T21:53:23.040Z,2.60
2022-08-20T21:55:49.955Z,2.53
2022-08-20T21:58:17.131Z,2.40
2022-08-20T22:01:03.089Z,2.30
2022-08-20T22:03:36.875Z,2.77
2022-08-20T22:06:07.448Z,2.77
2022-08-20T22:08:34.685Z,2.60
2022-08-20T22:11:02.743Z,2.30
2022-08-20T22:13:32.642Z,2.60
2022-08-20T22:16:07.384Z,2.20
2022-08-20T22:18:35.343Z,2.70
2022-08-20T22:21:02.472Z,2.47
2022-08-20T22:23:29.280Z,3.07
2022-08-20T22:25:56.048Z,3.00
2022-08-20T22:28:23.260Z,2.53
2022-08-20T22:30:50.238Z,2.47
2022-08-20T22:33:21.978Z,3.07
2022-08-20T22:35:51.395Z,2.80
2022-08-20T22:38:18.879Z,3.00
2022-08-20T22:40:45.982Z,2.70
2022-08-20T22:43:13.516Z,2.47
2022-08-20T22:45:41.802Z,2.53
2022-08-20T22:48:09.651Z,2.80
2022-08-20T22:50:37.881Z,2.27
2022-08-20T22:53:04.645Z,3.23
2022-08-20T22:55:31.318Z,2.57
2022-08-20T22:57:58.601Z,2.50
2022-08-20T23:00:25.628Z,2.67
2022-08-20T23:02:57.626Z,2.87
2022-08-20T23:05:26.400Z,3.10
2022-08-20T23:07:55.549Z,2.03
2022-08-20T23:10:23.587Z,2.17
2022-08-20T23:12:50.478Z,2.70
2022-08-20T23:15:17.269Z,2.10
2022-08-20T23:17:44.574Z,2.27
2022-08-20T23:20:14.781Z,2.33
2022-08-20T23:22:41.448Z,1.90
2022-08-20T23:25:10.657Z,1.77
2022-08-20T23:27:51.331Z,2.30
2022-08-20T23:30:20.622Z,2.07
2022-08-20T23:32:47.802Z,2.10
2022-08-20T23:35:15.232Z,1.73
2022-08-20T23:37:50.472Z,2.17
2022-08-20T23:40:18.857Z,2.20
2022-08-20T23:42:54.137Z,2.03
2022-08-20T23:45:21.743Z,2.70
2022-08-20T23:47:49.888Z,2.10
2022-08-20T23:50:22.289Z,2.50
2022-08-20T23:52:51.572Z,2.20
2022-08-20T23:55:19.209Z,2.00
2022-08-20T23:57:45.897Z,1.93
